National Weather Service United States Department of Commerce

Severe weather in the Southeast on Wednesday

The National Weather Service Storm Prediction Center expects a slight risk of severe weather in the Southeast on Wednesday. The area of greatest concern is in portions of South Carolina, Georgia and Florida. In these areas, damaging winds, hail and isolated tornadoes are possible. Read More >

CLT TRACON Summary / KCLT TAF
CLT TRACON Summary:

A cold front will approach from the west this afternoon, producing scattered to widespread thunderstorms moving in from the south after 19z. Cells will move to the northeast at 35-45kts. Expect MVFR/low-VFR ceilings through the afternoon. Surface winds will be south at 10-12kts. Flight Hazards in the TRACON airspace outside of convection: MOD Turbulence below 150.

 

Updated: 5/24/2017 12:30 PM  

CLT Terminal Aerodrome Forecast:
 
FTUS80 KCLT 241848 AAA
KCLT 241846Z 2419/2518 15011KT P6SM BKN024
      TEMPO 2419/2423 VRB25G35KT 3SM +TSRA OVC015CB
     FM242300 18008KT P6SM VCTS BKN035CB
     FM250400 20007KT P6SM BKN045
     FM250900 23006KT P6SM BKN025 PROB30 2513/2518 4SM -SHRA
      OVC015

CLT TRACON Area:
REMARKS: SCATTERED TS EXP ALL QUADS FROM 19-03Z.
Convective Gate Forecast / Collaborative Convective Forecast Product / Vertical Wind Profile
Convective Gate Forecast
SIGMETS/ Southeast Radar & Satellite Loops (click on image to enlarge)

Southeast Radar Loop